Time;durP1;ratioP1;P1;durP2;ratioP2;P2;SDS_P1;SDS_P2;PMS_P1;PMS_P2;Temp;Humidity;BMP_temperature;BMP_pressure;BME280_temperature;BME280_humidity;BME280_pressure;Samples;Min_cycle;Max_cycle;Signal;HPM_P1;HPM_P2
2022/03/28 00:00:38;;;;;;;20.92;10.32;;;6.40;54.80;;;;;;4978066;28;20092;-67
2022/03/28 00:03:05;;;;;;;18.35;10.65;;;6.30;54.70;;;;;;4978379;28;20042;-67
2022/03/28 00:05:31;;;;;;;23.95;11.07;;;6.30;54.80;;;;;;4979037;28;20096;-66
2022/03/28 00:07:57;;;;;;;21.08;10.25;;;6.30;54.90;;;;;;4976740;28;20034;-66
2022/03/28 00:10:22;;;;;;;20.88;10.98;;;6.30;54.90;;;;;;4980452;28;20043;-68
2022/03/28 00:12:49;;;;;;;19.20;10.55;;;6.30;54.90;;;;;;4957207;28;20042;-65
2022/03/28 00:15:15;;;;;;;20.60;10.40;;;6.30;54.90;;;;;;4977700;28;20046;-64
2022/03/28 00:17:40;;;;;;;22.08;10.05;;;6.30;54.90;;;;;;4977713;28;20113;-66
2022/03/28 00:20:11;;;;;;;19.60;10.18;;;6.30;55.00;;;;;;4978297;28;20046;-66
2022/03/28 00:22:39;;;;;;;22.25;10.93;;;6.20;55.00;;;;;;4977690;28;20046;-66
2022/03/28 00:25:05;;;;;;;18.50;10.05;;;6.20;55.00;;;;;;4976583;28;20092;-67
2022/03/28 00:27:31;;;;;;;20.55;10.23;;;6.20;55.10;;;;;;4977050;28;20066;-69
2022/03/28 00:29:57;;;;;;;23.52;10.27;;;6.20;55.20;;;;;;4981802;28;20112;-67
2022/03/28 00:32:22;;;;;;;22.83;10.25;;;6.10;55.80;;;;;;4981289;28;20035;-67
2022/03/28 00:34:48;;;;;;;19.60;9.82;;;6.10;55.90;;;;;;4982536;28;20034;-66
2022/03/28 00:37:14;;;;;;;20.25;9.90;;;6.00;55.10;;;;;;4975379;28;20097;-67
2022/03/28 00:39:39;;;;;;;19.80;9.93;;;6.00;55.00;;;;;;4961844;28;20399;-68
2022/03/28 00:42:05;;;;;;;19.65;10.32;;;6.00;55.00;;;;;;4975487;28;20549;-66
2022/03/28 00:44:32;;;;;;;23.08;10.45;;;6.00;55.10;;;;;;4980477;28;20061;-66
2022/03/28 00:46:58;;;;;;;21.55;10.13;;;6.00;55.30;;;;;;4965300;28;20109;-67
2022/03/28 00:49:24;;;;;;;22.45;10.40;;;6.00;55.30;;;;;;4981529;28;20034;-67
2022/03/28 00:51:50;;;;;;;19.17;10.57;;;6.00;55.20;;;;;;4982755;28;20398;-66
2022/03/28 00:54:16;;;;;;;19.90;10.27;;;5.90;55.20;;;;;;4971782;28;20043;-67
2022/03/28 00:56:45;;;;;;;23.60;10.90;;;5.90;55.30;;;;;;4964977;28;20395;-67
2022/03/28 00:59:11;;;;;;;20.48;10.10;;;5.90;55.40;;;;;;4980475;28;20108;-68
2022/03/28 01:01:37;;;;;;;21.90;10.02;;;5.80;55.50;;;;;;4987822;28;20039;-67
2022/03/28 01:04:08;;;;;;;24.70;10.82;;;5.80;55.40;;;;;;4970786;28;20045;-66
2022/03/28 01:06:38;;;;;;;19.25;10.07;;;5.70;55.40;;;;;;4963216;28;20051;-67
2022/03/28 01:09:05;;;;;;;19.33;10.25;;;5.70;55.80;;;;;;4978387;28;20069;-66
2022/03/28 01:11:35;;;;;;;23.58;10.43;;;5.70;55.50;;;;;;4985997;28;20040;-66
2022/03/28 01:14:01;;;;;;;18.38;9.73;;;5.70;55.50;;;;;;4962406;28;20039;-66
2022/03/28 01:16:31;;;;;;;22.20;11.40;;;5.60;55.50;;;;;;4977625;28;20037;-69
2022/03/28 01:18:57;;;;;;;22.10;10.38;;;5.60;55.70;;;;;;4981467;28;20030;-66
2022/03/28 01:21:22;;;;;;;18.67;10.05;;;5.70;55.70;;;;;;4980522;28;20041;-66
2022/03/28 01:23:48;;;;;;;21.27;10.27;;;5.60;55.70;;;;;;4970188;28;20397;-67
2022/03/28 01:26:17;;;;;;;18.55;9.73;;;5.60;55.80;;;;;;4960590;28;20101;-66
2022/03/28 01:28:43;;;;;;;18.63;10.07;;;5.50;56.00;;;;;;4979717;28;20023;-66
2022/03/28 01:31:08;;;;;;;22.48;10.98;;;5.50;55.90;;;;;;4976077;28;20498;-68
2022/03/28 01:33:37;;;;;;;24.02;11.63;;;5.40;56.00;;;;;;4960833;28;20102;-66
2022/03/28 01:36:03;;;;;;;22.67;10.43;;;5.40;56.10;;;;;;4975200;28;20038;-67
2022/03/28 01:38:28;;;;;;;19.98;10.65;;;5.30;56.10;;;;;;4979640;28;20042;-66
2022/03/28 01:40:54;;;;;;;23.55;11.10;;;5.30;56.30;;;;;;4960966;28;20038;-67
2022/03/28 01:43:21;;;;;;;21.13;10.48;;;5.20;56.30;;;;;;4969541;28;20497;-67
2022/03/28 01:45:47;;;;;;;18.73;10.07;;;5.20;56.50;;;;;;4980826;28;20486;-66
2022/03/28 01:48:14;;;;;;;19.48;10.63;;;5.10;56.50;;;;;;4964180;28;20031;-68
2022/03/28 01:50:40;;;;;;;19.00;9.73;;;5.10;57.30;;;;;;4964061;28;20041;-66
2022/03/28 01:53:07;;;;;;;23.30;10.52;;;5.00;56.50;;;;;;4979852;28;20064;-66
2022/03/28 01:55:32;;;;;;;23.73;10.50;;;4.90;56.50;;;;;;4969408;28;20481;-66
2022/03/28 01:57:58;;;;;;;21.73;9.75;;;4.90;56.50;;;;;;4961821;28;20031;-67
2022/03/28 02:00:25;;;;;;;20.92;10.23;;;4.90;56.50;;;;;;4976558;28;20565;-67
2022/03/28 02:02:51;;;;;;;18.85;10.20;;;4.90;56.70;;;;;;4976554;28;20158;-66
2022/03/28 02:05:17;;;;;;;18.13;10.25;;;4.80;56.60;;;;;;4967679;28;20026;-67
2022/03/28 02:07:46;;;;;;;21.63;10.07;;;4.80;56.80;;;;;;4969901;28;20087;-68
2022/03/28 02:10:15;;;;;;;22.20;10.15;;;4.70;56.90;;;;;;4960304;28;20058;-66
2022/03/28 02:12:41;;;;;;;20.65;9.85;;;4.70;56.90;;;;;;4961202;28;20175;-66
2022/03/28 02:15:08;;;;;;;19.27;9.98;;;4.70;57.00;;;;;;4973713;28;20097;-66
2022/03/28 02:17:38;;;;;;;22.70;10.10;;;4.70;57.10;;;;;;4960553;28;20073;-66
2022/03/28 02:20:08;;;;;;;19.23;9.68;;;4.60;57.40;;;;;;4972394;28;20035;-66
2022/03/28 02:22:38;;;;;;;26.65;10.73;;;4.60;57.40;;;;;;4978291;28;20039;-66
2022/03/28 02:25:05;;;;;;;22.65;9.45;;;4.50;57.40;;;;;;4960631;28;20043;-65
2022/03/28 02:27:31;;;;;;;18.90;9.93;;;4.50;57.30;;;;;;4968554;28;20109;-67
2022/03/28 02:29:56;;;;;;;20.17;10.15;;;4.50;57.40;;;;;;4980643;28;20498;-66
2022/03/28 02:32:22;;;;;;;22.13;10.27;;;4.50;57.50;;;;;;4964491;28;20039;-66
2022/03/28 02:34:48;;;;;;;17.50;9.50;;;4.40;57.50;;;;;;4973187;28;20560;-66
2022/03/28 02:37:14;;;;;;;19.38;10.30;;;4.40;57.50;;;;;;4966319;28;20045;-67
2022/03/28 02:39:39;;;;;;;20.75;9.32;;;4.40;57.50;;;;;;4970111;28;20027;-67
2022/03/28 02:42:05;;;;;;;20.02;9.50;;;4.40;57.60;;;;;;4972658;28;20034;-66
2022/03/28 02:44:31;;;;;;;22.77;9.90;;;4.30;57.60;;;;;;4962504;28;20567;-67
2022/03/28 02:46:57;;;;;;;18.70;9.93;;;4.30;57.50;;;;;;4965792;28;20039;-67
2022/03/28 02:49:23;;;;;;;21.05;9.57;;;4.30;57.70;;;;;;4978898;28;20046;-66
2022/03/28 02:51:48;;;;;;;20.10;10.10;;;4.30;57.60;;;;;;4967244;28;20067;-66
2022/03/28 02:54:15;;;;;;;20.25;10.10;;;4.30;57.70;;;;;;4961239;28;20468;-67
2022/03/28 02:56:40;;;;;;;19.00;10.15;;;4.30;57.80;;;;;;4978301;28;20059;-66
2022/03/28 02:59:06;;;;;;;21.20;9.90;;;4.30;57.90;;;;;;4976489;28;20116;-67
2022/03/28 03:01:32;;;;;;;24.45;10.60;;;4.20;57.90;;;;;;4959768;28;20035;-67
2022/03/28 03:03:57;;;;;;;21.63;10.15;;;4.20;58.10;;;;;;4961057;28;20077;-66
2022/03/28 03:06:23;;;;;;;20.13;9.52;;;4.10;58.10;;;;;;4960684;28;20046;-68
2022/03/28 03:08:50;;;;;;;21.10;9.95;;;4.20;58.20;;;;;;4976787;28;20034;-68
2022/03/28 03:11:16;;;;;;;20.88;9.95;;;4.10;58.40;;;;;;4978425;28;20240;-67
2022/03/28 03:13:42;;;;;;;20.90;10.35;;;4.10;58.50;;;;;;4982847;28;20030;-67
2022/03/28 03:16:08;;;;;;;20.85;9.57;;;4.10;58.40;;;;;;4965087;28;20041;-65
2022/03/28 03:18:33;;;;;;;20.73;9.93;;;4.10;58.40;;;;;;4959995;28;20544;-66
2022/03/28 03:20:59;;;;;;;25.25;9.63;;;4.10;58.40;;;;;;4979362;28;20041;-67
2022/03/28 03:23:28;;;;;;;23.38;9.48;;;4.10;58.40;;;;;;4964466;28;20039;-67
2022/03/28 03:25:54;;;;;;;19.70;9.65;;;4.10;58.40;;;;;;4970271;28;20035;-67
2022/03/28 03:28:20;;;;;;;23.20;9.98;;;4.10;58.30;;;;;;4968204;28;20050;-68
2022/03/28 03:30:49;;;;;;;20.52;9.70;;;4.10;58.30;;;;;;4962976;28;20069;-66
2022/03/28 03:33:15;;;;;;;23.00;9.50;;;4.10;58.50;;;;;;4978530;28;20454;-66
2022/03/28 03:35:41;;;;;;;18.27;9.15;;;4.00;58.40;;;;;;4974666;28;20039;-67
2022/03/28 03:38:07;;;;;;;21.73;10.07;;;4.00;58.40;;;;;;4960732;28;20047;-67
2022/03/28 03:40:33;;;;;;;23.25;9.30;;;3.90;58.40;;;;;;4976771;28;20062;-66
2022/03/28 03:42:58;;;;;;;20.55;10.43;;;3.90;58.50;;;;;;4977848;28;20136;-66
2022/03/28 03:45:24;;;;;;;20.73;9.32;;;3.90;58.50;;;;;;4980827;28;20557;-66
2022/03/28 03:47:50;;;;;;;23.92;9.52;;;3.90;58.60;;;;;;4965739;28;20395;-66
2022/03/28 03:50:16;;;;;;;23.08;9.60;;;3.90;58.70;;;;;;4959022;28;20089;-66
2022/03/28 03:52:42;;;;;;;22.38;9.70;;;3.90;58.80;;;;;;4975243;28;20031;-67
2022/03/28 03:55:08;;;;;;;21.85;9.95;;;3.80;58.80;;;;;;4972409;28;20054;-65
2022/03/28 03:57:34;;;;;;;20.20;9.90;;;3.80;58.90;;;;;;4959751;28;20134;-66
2022/03/28 04:00:00;;;;;;;21.83;10.38;;;3.70;58.80;;;;;;4971567;28;20145;-66
2022/03/28 04:02:25;;;;;;;22.90;11.50;;;3.80;58.80;;;;;;4976012;28;20575;-68
2022/03/28 04:04:51;;;;;;;28.20;11.88;;;3.80;58.90;;;;;;4958259;28;20039;-66
2022/03/28 04:07:16;;;;;;;25.65;12.13;;;3.80;59.10;;;;;;4966981;28;20405;-66
2022/03/28 04:09:42;;;;;;;20.52;10.40;;;3.80;59.50;;;;;;4977644;28;20035;-66
2022/03/28 04:12:09;;;;;;;27.88;12.25;;;3.80;59.50;;;;;;4975920;28;20027;-68
2022/03/28 04:14:35;;;;;;;29.52;12.68;;;3.80;59.50;;;;;;4960270;28;20059;-67
2022/03/28 04:17:00;;;;;;;24.52;12.18;;;3.80;59.30;;;;;;4963791;28;20057;-67
2022/03/28 04:19:26;;;;;;;26.10;11.93;;;3.80;59.50;;;;;;4980851;28;20038;-66
2022/03/28 04:21:52;;;;;;;27.13;13.75;;;3.80;59.50;;;;;;4965631;28;20038;-66
2022/03/28 04:24:18;;;;;;;37.25;14.88;;;3.80;59.30;;;;;;4955979;28;20031;-67
2022/03/28 04:26:44;;;;;;;29.27;13.40;;;3.80;59.30;;;;;;4976701;28;20353;-67
2022/03/28 04:29:10;;;;;;;37.88;14.30;;;3.90;59.30;;;;;;4970389;28;20035;-67
2022/03/28 04:31:40;;;;;;;37.10;13.93;;;3.90;59.20;;;;;;4960122;28;20507;-67
2022/03/28 04:34:07;;;;;;;27.13;12.10;;;3.90;59.20;;;;;;4972946;28;20401;-66
2022/03/28 04:36:33;;;;;;;27.67;11.63;;;3.80;59.10;;;;;;4961756;28;20043;-68
2022/03/28 04:38:59;;;;;;;31.80;11.55;;;3.80;59.10;;;;;;4979933;28;20046;-66
2022/03/28 04:41:25;;;;;;;22.80;10.18;;;3.80;59.00;;;;;;4970135;28;20039;-66
2022/03/28 04:43:51;;;;;;;22.60;10.73;;;3.80;59.00;;;;;;4960906;28;20043;-67
2022/03/28 04:46:16;;;;;;;24.88;11.07;;;3.80;58.90;;;;;;4974319;28;20042;-67
2022/03/28 04:48:42;;;;;;;25.63;11.75;;;3.70;59.00;;;;;;4977193;28;20027;-66
2022/03/28 04:51:08;;;;;;;26.42;13.05;;;3.60;59.10;;;;;;4960963;28;20568;-66
2022/03/28 04:53:34;;;;;;;26.83;12.05;;;3.60;59.30;;;;;;4969041;28;20059;-66
2022/03/28 04:55:59;;;;;;;28.35;12.02;;;3.60;59.40;;;;;;4978724;28;20089;-67
2022/03/28 04:58:25;;;;;;;25.13;11.45;;;3.50;60.10;;;;;;4962539;28;20108;-66
2022/03/28 05:00:52;;;;;;;26.88;11.50;;;3.60;59.50;;;;;;4963148;28;20133;-66
2022/03/28 05:03:18;;;;;;;26.60;12.70;;;3.50;59.50;;;;;;4983205;28;20572;-66
2022/03/28 05:05:44;;;;;;;41.72;19.27;;;3.50;59.60;;;;;;4968351;28;20089;-66
2022/03/28 05:08:10;;;;;;;54.22;22.90;;;3.50;59.70;;;;;;4960028;28;20066;-67
2022/03/28 05:10:35;;;;;;;56.47;22.52;;;3.40;59.60;;;;;;4973033;28;20438;-65
2022/03/28 05:13:01;;;;;;;37.05;15.43;;;3.40;59.70;;;;;;4972241;28;20037;-66
2022/03/28 05:15:27;;;;;;;33.92;13.20;;;3.40;59.60;;;;;;4962085;28;20054;-66
2022/03/28 05:17:53;;;;;;;31.02;12.90;;;3.40;59.70;;;;;;4973204;28;20347;-66
2022/03/28 05:20:19;;;;;;;34.53;12.05;;;3.40;59.90;;;;;;4982113;28;20035;-66
2022/03/28 05:22:45;;;;;;;28.55;11.65;;;3.30;59.80;;;;;;4978246;28;20054;-66
2022/03/28 05:25:11;;;;;;;30.85;11.20;;;3.30;59.80;;;;;;4976183;28;20110;-66
2022/03/28 05:27:44;;;;;;;28.08;11.48;;;3.30;59.70;;;;;;4961272;28;20045;-66
2022/03/28 05:30:11;;;;;;;31.70;11.75;;;3.30;60.20;;;;;;4974464;28;20039;-69
2022/03/28 05:32:37;;;;;;;36.45;12.70;;;3.30;59.90;;;;;;4980738;28;20038;-68
2022/03/28 05:35:02;;;;;;;31.38;12.25;;;3.30;60.10;;;;;;4962048;28;20026;-69
2022/03/28 05:37:28;;;;;;;29.75;11.13;;;3.30;60.20;;;;;;4979734;28;20136;-68
2022/03/28 05:39:55;;;;;;;28.17;12.00;;;3.20;60.20;;;;;;4981293;28;20042;-69
2022/03/28 05:42:21;;;;;;;32.95;11.32;;;3.20;60.30;;;;;;4966494;28;20031;-69
2022/03/28 05:44:47;;;;;;;37.55;12.55;;;3.20;60.40;;;;;;4977687;28;20035;-66
2022/03/28 05:47:12;;;;;;;43.50;14.40;;;3.20;60.50;;;;;;4962133;28;20082;-68
2022/03/28 05:49:38;;;;;;;52.63;18.10;;;3.20;60.60;;;;;;4972141;28;20038;-69
2022/03/28 05:52:04;;;;;;;51.63;17.90;;;3.20;61.20;;;;;;4980887;28;20035;-69
2022/03/28 05:54:30;;;;;;;71.55;21.45;;;3.20;60.90;;;;;;4963648;28;20094;-69
2022/03/28 05:56:56;;;;;;;61.72;22.05;;;3.20;61.00;;;;;;4966117;28;20455;-70
2022/03/28 05:59:21;;;;;;;56.80;21.00;;;3.20;61.20;;;;;;4981565;28;20035;-68
2022/03/28 06:01:47;;;;;;;59.42;19.92;;;3.20;61.40;;;;;;4970392;28;20391;-68
2022/03/28 06:04:13;;;;;;;47.03;17.10;;;3.30;61.60;;;;;;4959224;28;20059;-66
2022/03/28 06:06:39;;;;;;;50.22;16.00;;;3.30;61.40;;;;;;4976816;28;20187;-66
2022/03/28 06:09:04;;;;;;;47.40;16.13;;;3.30;61.50;;;;;;4975402;28;20032;-68
2022/03/28 06:11:30;;;;;;;43.83;15.40;;;3.40;61.80;;;;;;4954990;28;20114;-67
2022/03/28 06:13:57;;;;;;;74.38;22.02;;;3.40;62.10;;;;;;4970591;28;20034;-66
2022/03/28 06:16:26;;;;;;;55.42;17.80;;;3.40;62.00;;;;;;4982118;28;20050;-66
2022/03/28 06:18:52;;;;;;;52.38;15.23;;;3.40;62.10;;;;;;4994449;28;20527;-66
2022/03/28 06:21:18;;;;;;;46.40;14.18;;;3.50;62.30;;;;;;4979861;28;20584;-66
2022/03/28 06:23:43;;;;;;;53.97;14.43;;;3.50;62.40;;;;;;4980066;28;20117;-66
2022/03/28 06:26:12;;;;;;;53.83;14.48;;;3.60;62.50;;;;;;4992461;28;20121;-67
2022/03/28 06:28:39;;;;;;;42.22;13.95;;;3.60;62.60;;;;;;4977824;28;20038;-66
2022/03/28 06:31:05;;;;;;;41.75;13.45;;;3.70;62.70;;;;;;4962953;28;20123;-67
2022/03/28 06:33:31;;;;;;;42.00;14.00;;;3.70;62.70;;;;;;4968906;28;20622;-67
2022/03/28 06:35:57;;;;;;;43.38;14.45;;;3.80;62.80;;;;;;4981307;28;20177;-67
2022/03/28 06:38:23;;;;;;;42.75;14.48;;;3.90;62.90;;;;;;4966532;28;20542;-66
2022/03/28 06:40:49;;;;;;;38.63;13.48;;;4.00;63.00;;;;;;4964005;28;20113;-65
2022/03/28 06:43:14;;;;;;;39.55;13.70;;;4.10;63.10;;;;;;4982717;28;20090;-66
2022/03/28 06:45:40;;;;;;;40.72;13.57;;;4.20;63.00;;;;;;4979958;28;20054;-67
2022/03/28 06:48:06;;;;;;;34.80;12.35;;;4.30;63.20;;;;;;4981683;28;20030;-66
2022/03/28 06:50:34;;;;;;;40.28;13.82;;;4.40;62.90;;;;;;4961309;28;20039;-66
2022/03/28 06:53:00;;;;;;;42.85;14.00;;;4.50;63.00;;;;;;4966697;28;20077;-67
2022/03/28 06:55:26;;;;;;;44.33;14.25;;;4.60;63.00;;;;;;4979296;28;20535;-66
2022/03/28 06:57:52;;;;;;;35.67;14.07;;;4.70;62.80;;;;;;4968609;28;20100;-66
2022/03/28 07:00:18;;;;;;;36.67;14.15;;;4.80;62.80;;;;;;4961723;28;20122;-66
2022/03/28 07:02:44;;;;;;;33.90;14.00;;;4.90;62.80;;;;;;4976278;28;20038;-66
2022/03/28 07:05:11;;;;;;;30.88;13.23;;;5.00;62.60;;;;;;4980709;28;20038;-65
2022/03/28 07:07:43;;;;;;;33.42;12.90;;;5.10;62.40;;;;;;4970156;28;20031;-66
2022/03/28 07:10:10;;;;;;;36.05;14.43;;;5.30;62.70;;;;;;4965288;28;20046;-66
2022/03/28 07:12:37;;;;;;;38.33;13.95;;;5.40;62.30;;;;;;4957431;28;20049;-66
2022/03/28 07:15:03;;;;;;;39.15;14.63;;;5.50;62.00;;;;;;4977889;28;20513;-66
2022/03/28 07:17:29;;;;;;;31.05;13.20;;;5.60;62.00;;;;;;4972093;28;20621;-67
2022/03/28 07:19:54;;;;;;;41.95;14.73;;;5.80;62.00;;;;;;4972522;28;20173;-66
2022/03/28 07:22:20;;;;;;;37.10;15.13;;;5.90;61.80;;;;;;4962492;28;20042;-66
2022/03/28 07:24:46;;;;;;;39.53;13.90;;;6.00;61.50;;;;;;4976139;28;20420;-66
2022/03/28 07:27:11;;;;;;;42.25;14.02;;;6.20;61.50;;;;;;4958207;28;20507;-67
2022/03/28 07:29:38;;;;;;;34.30;13.82;;;6.30;61.30;;;;;;4965642;28;20081;-66
2022/03/28 07:32:04;;;;;;;37.25;15.07;;;6.40;61.10;;;;;;4977007;28;20166;-66
2022/03/28 07:34:30;;;;;;;43.97;13.95;;;6.60;61.80;;;;;;4961479;28;20047;-66
2022/03/28 07:37:02;;;;;;;38.78;14.25;;;6.70;61.00;;;;;;4962214;28;20100;-66
2022/03/28 07:39:29;;;;;;;44.55;14.88;;;6.80;61.00;;;;;;4970724;28;20038;-66
2022/03/28 07:41:55;;;;;;;39.40;14.88;;;6.90;60.90;;;;;;4972322;28;20041;-68
2022/03/28 07:44:20;;;;;;;38.67;14.30;;;7.00;60.90;;;;;;4980862;28;20048;-68
2022/03/28 07:46:47;;;;;;;40.72;14.40;;;7.20;60.80;;;;;;4961650;28;20541;-66
2022/03/28 07:49:13;;;;;;;36.85;14.13;;;7.30;60.50;;;;;;4967465;28;20409;-66
2022/03/28 07:51:39;;;;;;;42.40;13.95;;;7.50;60.30;;;;;;4980159;28;20038;-67
2022/03/28 07:54:05;;;;;;;43.15;14.30;;;7.70;60.40;;;;;;4967533;28;20042;-68
2022/03/28 07:56:31;;;;;;;35.80;13.85;;;7.80;60.40;;;;;;4961777;28;20033;-66
2022/03/28 07:58:57;;;;;;;29.83;13.07;;;8.00;60.50;;;;;;4980218;28;20141;-68
2022/03/28 08:01:23;;;;;;;39.28;14.27;;;8.20;60.00;;;;;;4968063;28;20081;-68
2022/03/28 08:03:49;;;;;;;42.38;14.05;;;8.30;60.00;;;;;;4960613;28;20043;-68
2022/03/28 08:06:14;;;;;;;33.33;13.13;;;8.50;59.90;;;;;;4974374;28;20085;-66
2022/03/28 08:08:40;;;;;;;33.70;12.98;;;8.60;59.70;;;;;;4960816;28;20027;-66
2022/03/28 08:11:07;;;;;;;39.92;13.45;;;8.80;59.60;;;;;;4977690;28;20031;-68
2022/03/28 08:13:33;;;;;;;35.90;12.85;;;9.00;60.20;;;;;;4980067;28;20698;-67
2022/03/28 08:16:00;;;;;;;26.13;12.35;;;9.20;59.30;;;;;;4977860;28;20109;-67
2022/03/28 08:18:26;;;;;;;31.92;12.52;;;9.40;59.00;;;;;;4980036;28;20042;-67
2022/03/28 08:20:53;;;;;;;32.33;13.23;;;9.60;59.30;;;;;;4980382;28;20045;-66
2022/03/28 08:23:20;;;;;;;28.30;12.32;;;9.70;58.40;;;;;;4979262;28;20046;-69
2022/03/28 08:25:47;;;;;;;27.25;12.45;;;10.00;58.20;;;;;;4975527;28;20465;-66
2022/03/28 08:28:13;;;;;;;30.67;12.43;;;10.10;57.80;;;;;;4976234;28;20486;-66
2022/03/28 08:30:38;;;;;;;24.92;12.98;;;10.40;57.50;;;;;;4976024;28;20038;-66
2022/03/28 08:33:05;;;;;;;25.75;12.50;;;10.50;57.00;;;;;;4976957;28;20437;-67
2022/03/28 08:35:31;;;;;;;22.77;12.27;;;10.70;56.70;;;;;;4977559;28;20061;-66
2022/03/28 08:37:57;;;;;;;23.73;12.13;;;10.90;56.40;;;;;;4975486;28;20517;-69
2022/03/28 08:40:24;;;;;;;20.73;11.73;;;11.10;56.00;;;;;;4977000;28;20394;-68
2022/03/28 08:42:49;;;;;;;24.77;11.63;;;11.30;55.60;;;;;;4977326;28;20498;-67
2022/03/28 08:45:16;;;;;;;24.17;11.95;;;11.50;55.50;;;;;;4977560;28;20048;-67
2022/03/28 08:47:46;;;;;;;25.05;12.07;;;11.70;54.90;;;;;;4975235;28;20030;-69
2022/03/28 08:50:13;;;;;;;26.08;12.20;;;12.00;54.40;;;;;;4978095;28;20100;-66
2022/03/28 08:52:43;;;;;;;22.70;11.77;;;12.20;54.30;;;;;;4982804;28;20037;-67
2022/03/28 08:55:10;;;;;;;23.33;11.93;;;12.40;54.10;;;;;;4987132;28;20162;-67
2022/03/28 08:57:37;;;;;;;22.90;12.20;;;12.60;53.60;;;;;;4981077;28;20047;-67
2022/03/28 09:00:05;;;;;;;24.33;12.82;;;12.80;53.30;;;;;;4968035;28;20034;-66
2022/03/28 09:02:41;;;;;;;24.45;11.40;;;13.00;52.60;;;;;;4979982;28;20039;-67
2022/03/28 09:05:10;;;;;;;24.45;12.40;;;13.20;52.50;;;;;;4971974;28;20027;-68
2022/03/28 09:07:36;;;;;;;20.75;11.75;;;13.40;52.10;;;;;;4962002;28;20062;-66
2022/03/28 09:10:17;;;;;;;20.13;11.55;;;13.60;51.80;;;;;;4973084;28;20030;-66
2022/03/28 09:13:09;;;;;;;21.58;11.60;;;13.80;51.40;;;;;;4973851;28;20037;-68
2022/03/28 09:15:50;;;;;;;22.08;11.52;;;14.00;50.80;;;;;;4958977;28;20039;-64
2022/03/28 09:18:30;;;;;;;20.75;11.68;;;14.20;50.90;;;;;;4977064;28;20038;-66
2022/03/28 09:21:11;;;;;;;22.38;11.70;;;14.30;50.50;;;;;;4976594;28;20042;-67
2022/03/28 09:23:40;;;;;;;19.58;11.77;;;14.50;50.20;;;;;;4963804;28;20427;-66
2022/03/28 09:26:10;;;;;;;19.90;12.20;;;14.60;49.90;;;;;;4974368;28;20042;-67
2022/03/28 09:28:45;;;;;;;21.25;12.18;;;14.80;49.70;;;;;;4980232;28;20045;-67
2022/03/28 09:31:30;;;;;;;23.17;12.85;;;14.90;49.60;;;;;;4960776;28;20041;-69
2022/03/28 09:34:11;;;;;;;20.00;12.17;;;15.10;48.50;;;;;;4974221;28;20061;-67
2022/03/28 09:36:43;;;;;;;28.50;12.10;;;15.30;48.20;;;;;;4963181;28;20045;-68
2022/03/28 09:39:23;;;;;;;19.40;11.57;;;15.40;48.30;;;;;;4982122;28;20047;-68
2022/03/28 09:42:08;;;;;;;22.33;12.13;;;15.50;48.00;;;;;;4967881;28;20027;-67
2022/03/28 09:44:43;;;;;;;20.90;11.80;;;15.60;47.30;;;;;;4963830;28;20118;-67
2022/03/28 09:47:16;;;;;;;;;;;15.70;48.00;;;;;;4979493;28;20426;-67
2022/03/28 09:49:43;;;;;;;22.27;12.02;;;15.90;47.90;;;;;;4980501;28;20021;-66
2022/03/28 09:52:17;;;;;;;20.88;13.60;;;16.00;48.00;;;;;;4981832;28;20418;-66
2022/03/28 09:54:47;;;;;;;20.63;12.30;;;16.10;47.00;;;;;;4961401;28;20479;-67
2022/03/28 09:57:16;;;;;;;22.63;11.90;;;16.10;46.50;;;;;;4965108;28;20414;-66
2022/03/28 09:59:42;;;;;;;19.67;12.32;;;16.20;46.70;;;;;;4980361;28;20545;-66
2022/03/28 10:02:18;;;;;;;20.80;12.60;;;16.30;46.90;;;;;;4963138;28;20035;-67
2022/03/28 10:04:46;;;;;;;24.80;12.90;;;16.50;46.90;;;;;;4961639;28;20126;-68
2022/03/28 10:07:12;;;;;;;21.67;13.88;;;16.60;47.30;;;;;;4977645;28;20549;-67
2022/03/28 10:09:39;;;;;;;22.20;13.60;;;16.70;47.20;;;;;;4959627;28;20142;-67
2022/03/28 10:12:07;;;;;;;24.95;13.05;;;16.90;46.50;;;;;;4971257;28;20540;-67
2022/03/28 10:14:33;;;;;;;20.98;13.10;;;17.00;46.60;;;;;;4961313;28;20126;-68
2022/03/28 10:17:02;;;;;;;20.88;13.70;;;17.10;46.50;;;;;;4966123;28;20039;-67
2022/03/28 10:19:30;;;;;;;22.52;13.63;;;17.30;46.00;;;;;;4981071;28;20043;-68
2022/03/28 10:21:57;;;;;;;21.23;12.90;;;17.40;45.90;;;;;;4968436;28;20039;-67
2022/03/28 10:24:25;;;;;;;23.73;13.30;;;17.50;45.50;;;;;;4961801;28;20074;-68
2022/03/28 10:26:57;;;;;;;23.42;13.48;;;17.70;45.30;;;;;;4972896;28;20065;-67
2022/03/28 10:29:32;;;;;;;25.48;13.40;;;17.80;44.60;;;;;;4968190;28;20046;-67
2022/03/28 10:32:00;;;;;;;21.88;13.50;;;17.90;44.80;;;;;;4978261;28;20044;-67
2022/03/28 10:34:39;;;;;;;22.02;12.70;;;18.00;44.40;;;;;;4960493;28;20453;-67
2022/03/28 10:37:38;;;;;;;24.70;13.63;;;18.20;43.80;;;;;;4973205;28;20775;-67
2022/03/28 10:40:19;;;;;;;19.10;11.85;;;18.30;43.20;;;;;;4978863;28;20772;-67
2022/03/28 10:42:52;;;;;;;20.65;12.70;;;18.40;43.10;;;;;;4962627;28;20093;-67
2022/03/28 10:45:19;;;;;;;18.67;12.35;;;18.40;43.10;;;;;;4967541;28;20177;-68
2022/03/28 10:47:56;;;;;;;18.98;11.93;;;18.50;43.50;;;;;;4979668;28;20034;-67
2022/03/28 10:50:43;;;;;;;22.02;12.57;;;18.60;41.50;;;;;;4965542;28;20035;-68
2022/03/28 10:53:11;;;;;;;20.02;12.18;;;18.70;42.10;;;;;;4960058;28;20046;-68
2022/03/28 10:55:47;;;;;;;19.63;11.27;;;18.80;42.00;;;;;;4959907;28;20043;-67
2022/03/28 10:58:23;;;;;;;23.48;12.63;;;18.90;40.60;;;;;;4988958;28;20039;-67
2022/03/28 11:01:07;;;;;;;21.35;13.27;;;18.90;41.70;;;;;;4976106;28;20039;-68
2022/03/28 11:03:43;;;;;;;21.35;12.07;;;19.10;41.50;;;;;;4957883;28;20031;-68
2022/03/28 11:06:09;;;;;;;22.40;12.20;;;19.10;41.20;;;;;;4973447;28;20038;-67
2022/03/28 11:08:39;;;;;;;19.52;12.43;;;19.20;41.30;;;;;;4977679;28;20026;-67
2022/03/28 11:11:23;;;;;;;18.30;11.40;;;19.30;40.60;;;;;;4971987;28;20109;-70
2022/03/28 11:14:02;;;;;;;23.35;12.50;;;19.40;40.40;;;;;;4970364;28;20181;-70
2022/03/28 11:16:39;;;;;;;23.40;11.85;;;19.50;40.10;;;;;;4977201;28;20070;-68
2022/03/28 11:19:20;;;;;;;21.70;11.93;;;19.50;39.80;;;;;;4960732;28;20153;-67
2022/03/28 11:22:08;;;;;;;17.40;10.18;;;19.60;38.90;;;;;;4972091;28;20053;-69
2022/03/28 11:24:43;;;;;;;18.75;10.52;;;19.70;38.30;;;;;;4975420;28;20038;-67
2022/03/28 11:27:09;;;;;;;17.58;11.00;;;19.80;38.20;;;;;;4981474;28;20043;-68
2022/03/28 11:29:35;;;;;;;16.13;10.48;;;19.80;38.80;;;;;;4975400;28;20034;-68
2022/03/28 11:32:05;;;;;;;15.32;10.07;;;19.90;38.50;;;;;;4976465;28;20390;-68
2022/03/28 11:34:31;;;;;;;15.43;10.30;;;19.90;37.30;;;;;;4962394;28;20034;-69
2022/03/28 11:36:58;;;;;;;20.13;10.60;;;19.90;37.60;;;;;;4962269;28;20042;-70
2022/03/28 11:39:26;;;;;;;18.60;10.45;;;20.00;37.20;;;;;;4978271;28;20050;-68
2022/03/28 11:41:53;;;;;;;17.73;10.70;;;20.00;37.30;;;;;;4978486;28;20030;-70
2022/03/28 11:44:18;;;;;;;21.58;10.45;;;20.10;36.60;;;;;;4964107;28;20045;-69
2022/03/28 11:46:54;;;;;;;19.27;12.15;;;20.20;36.60;;;;;;4975529;28;20046;-67
2022/03/28 11:49:20;;;;;;;20.83;12.38;;;20.30;34.40;;;;;;4970895;28;20058;-67
2022/03/28 11:51:48;;;;;;;17.60;11.50;;;20.30;35.50;;;;;;4960982;28;20067;-68
2022/03/28 11:54:19;;;;;;;18.15;11.65;;;20.30;35.10;;;;;;4977555;28;20034;-67
2022/03/28 11:59:37;;;;;;;17.90;11.13;;;20.20;35.10;;;;;;4960818;28;20049;-67
2022/03/28 12:02:06;;;;;;;20.92;11.80;;;20.30;36.10;;;;;;4969498;28;20486;-68
2022/03/28 12:04:32;;;;;;;19.27;11.77;;;20.30;35.70;;;;;;4977563;28;20042;-67
2022/03/28 12:06:58;;;;;;;17.33;12.15;;;20.30;35.90;;;;;;4957118;28;20510;-67
2022/03/28 12:09:24;;;;;;;18.38;10.60;;;20.40;34.80;;;;;;4964030;28;20066;-67
2022/03/28 12:11:52;;;;;;;17.48;10.75;;;20.50;35.00;;;;;;4976129;28;20972;-67
2022/03/28 12:14:18;;;;;;;21.10;12.20;;;20.50;35.80;;;;;;4963263;28;20173;-68
2022/03/28 12:16:49;;;;;;;23.05;11.68;;;20.60;34.30;;;;;;4957895;28;20504;-67
2022/03/28 12:19:21;;;;;;;17.15;11.35;;;20.60;34.30;;;;;;4976706;28;20035;-68
2022/03/28 12:21:48;;;;;;;16.10;10.63;;;20.60;34.80;;;;;;4968705;28;20054;-67
2022/03/28 12:24:14;;;;;;;16.90;11.00;;;20.60;35.10;;;;;;4962166;28;20129;-67
2022/03/28 12:26:46;;;;;;;18.63;11.57;;;20.70;35.10;;;;;;4978338;28;20072;-70
2022/03/28 12:29:12;;;;;;;16.55;10.55;;;20.70;34.40;;;;;;4972428;28;20035;-68
2022/03/28 12:31:49;;;;;;;21.77;11.80;;;20.80;33.90;;;;;;4970820;28;20081;-67
2022/03/28 12:34:17;;;;;;;17.98;11.00;;;20.80;32.90;;;;;;4964451;28;20065;-67
2022/03/28 12:36:43;;;;;;;16.45;10.75;;;20.80;32.50;;;;;;4978506;28;20509;-68
2022/03/28 12:39:10;;;;;;;17.48;10.48;;;20.90;32.70;;;;;;4960952;28;20066;-68
2022/03/28 12:41:44;;;;;;;17.40;11.85;;;20.90;32.40;;;;;;4968107;28;20045;-68